Time;durP1;ratioP1;P1;durP2;ratioP2;P2;SDS_P1;SDS_P2;PMS_P1;PMS_P2;Temp;Humidity;BMP_temperature;BMP_pressure;BME280_temperature;BME280_humidity;BME280_pressure;Samples;Min_cycle;Max_cycle;Signal;HPM_P1;HPM_P2
2022/10/10 00:02:17;;;;;;;5.15;1.73;;;;;;;;;;5067625;28;20515;-70
2022/10/10 00:04:43;;;;;;;5.65;1.67;;;;;;;;;;5071747;28;20045;-70
2022/10/10 00:07:10;;;;;;;3.40;1.50;;;;;;;;;;5070740;28;20055;-70
2022/10/10 00:09:36;;;;;;;4.38;1.40;;;;;;;;;;5070825;28;20045;-70
2022/10/10 00:12:02;;;;;;;8.85;1.98;;;;;;;;;;5072047;28;20048;-70
2022/10/10 00:14:29;;;;;;;5.93;1.55;;;;;;;;;;5071746;28;20071;-70
2022/10/10 00:16:57;;;;;;;5.15;2.10;;;;;;;;;;5071731;28;20044;-70
2022/10/10 00:19:24;;;;;;;5.70;1.85;;;;;;;;;;5071956;28;20045;-69
2022/10/10 00:21:50;;;;;;;5.85;1.85;;;;;;;;;;5071664;28;20385;-70
2022/10/10 00:24:16;;;;;;;9.77;2.53;;;;;;;;;;5071911;28;20081;-70
2022/10/10 00:26:43;;;;;;;5.85;2.00;;;;;;;;;;5071945;28;20053;-70
2022/10/10 00:29:09;;;;;;;6.47;1.90;;;;;;;;;;5071346;28;20059;-70
2022/10/10 00:31:35;;;;;;;7.45;1.70;;;;;;;;;;5071262;28;20048;-70
2022/10/10 00:34:02;;;;;;;4.45;1.73;;;;;;;;;;5071923;28;20056;-70
2022/10/10 00:36:28;;;;;;;4.90;1.83;;;;;;;;;;5071731;28;20045;-70
2022/10/10 00:38:55;;;;;;;4.85;1.85;;;;;;;;;;5043567;28;20566;-70
2022/10/10 00:41:21;;;;;;;3.75;1.60;;;;;;;;;;5059439;28;20049;-71
2022/10/10 00:44:00;;;;;;;5.18;2.10;;;;;;;;;;5069874;28;20049;-70
2022/10/10 00:46:27;;;;;;;4.03;1.65;;;;;;;;;;5071676;28;20055;-70
2022/10/10 00:48:53;;;;;;;5.32;1.85;;;;;;;;;;5071527;28;20055;-70
2022/10/10 00:51:20;;;;;;;7.50;2.22;;;;;;;;;;5071555;28;20052;-70
2022/10/10 00:53:47;;;;;;;5.20;1.80;;;;;;;;;;5071375;28;20052;-70
2022/10/10 00:56:16;;;;;;;5.10;1.75;;;;;;;;;;5071846;28;20052;-70
2022/10/10 00:58:45;;;;;;;6.22;1.90;;;;;;;;;;5070292;28;20117;-70
2022/10/10 01:01:11;;;;;;;5.32;1.88;;;;;;;;;;5071502;28;20059;-71
2022/10/10 01:03:38;;;;;;;6.43;1.92;;;;;;;;;;5070348;28;20049;-70
2022/10/10 01:06:05;;;;;;;5.53;2.30;;;;;;;;;;5071119;28;20041;-70
2022/10/10 01:08:31;;;;;;;4.70;1.80;;;;;;;;;;5071368;28;20369;-70
2022/10/10 01:10:58;;;;;;;5.22;2.17;;;;;;;;;;5070956;28;20055;-70
2022/10/10 01:13:35;;;;;;;3.90;1.80;;;;;;;;;;5070186;28;20057;-70
2022/10/10 01:16:13;;;;;;;6.28;2.15;;;;;;;;;;5071259;28;20036;-71
2022/10/10 01:18:47;;;;;;;5.60;1.92;;;;;;;;;;5071507;28;20048;-71
2022/10/10 01:21:19;;;;;;;3.67;1.58;;;;;;;;;;5071088;28;20036;-70
2022/10/10 01:24:08;;;;;;;6.97;2.03;;;;;;;;;;5071411;28;20055;-70
2022/10/10 01:26:34;;;;;;;5.20;2.00;;;;;;;;;;5071260;28;20127;-70
2022/10/10 01:29:03;;;;;;;6.40;2.05;;;;;;;;;;5071115;28;20053;-70
2022/10/10 01:31:33;;;;;;;4.53;1.85;;;;;;;;;;5056669;28;20059;-70
2022/10/10 01:34:11;;;;;;;4.22;1.95;;;;;;;;;;5071045;28;20053;-70
2022/10/10 01:36:44;;;;;;;4.82;2.38;;;;;;;;;;5070771;28;20503;-70
2022/10/10 01:39:13;;;;;;;3.55;1.70;;;;;;;;;;5071235;28;20056;-70
2022/10/10 01:41:45;;;;;;;5.90;1.85;;;;;;;;;;5074340;28;20071;-70
2022/10/10 01:44:13;;;;;;;3.08;1.48;;;;;;;;;;5074500;28;20067;-70
2022/10/10 01:46:40;;;;;;;4.97;1.65;;;;;;;;;;5074731;28;20056;-72
2022/10/10 01:49:06;;;;;;;5.38;1.75;;;;;;;;;;5074664;28;20049;-70
2022/10/10 01:51:55;;;;;;;3.75;1.70;;;;;;;;;;5074490;28;20052;-70
2022/10/10 01:54:34;;;;;;;6.80;1.80;;;;;;;;;;5074650;28;20049;-70
2022/10/10 01:57:00;;;;;;;6.57;1.83;;;;;;;;;;5074478;28;20051;-71
2022/10/10 01:59:45;;;;;;;2.95;1.80;;;;;;;;;;5074439;28;20131;-70
2022/10/10 02:02:22;;;;;;;4.45;1.63;;;;;;;;;;5074228;28;20057;-70
2022/10/10 02:04:52;;;;;;;5.15;2.17;;;;;;;;;;5074183;28;20051;-70
2022/10/10 02:07:23;;;;;;;4.85;1.55;;;;;;;;;;5074024;28;20059;-70
2022/10/10 02:09:51;;;;;;;4.25;2.22;;;;;;;;;;5074058;28;20533;-70
2022/10/10 02:12:18;;;;;;;5.63;2.05;;;;;;;;;;5072711;28;20416;-70
2022/10/10 02:14:46;;;;;;;2.17;1.60;;;;;;;;;;5072905;28;20063;-70
2022/10/10 02:17:14;;;;;;;4.25;2.00;;;;;;;;;;5073870;28;20154;-70
2022/10/10 02:19:43;;;;;;;3.05;1.90;;;;;;;;;;5073819;28;20045;-70
2022/10/10 02:22:09;;;;;;;4.20;1.65;;;;;;;;;;5072564;28;20044;-70
2022/10/10 02:24:36;;;;;;;4.43;2.05;;;;;;;;;;5072774;28;20135;-70
2022/10/10 02:27:05;;;;;;;5.85;2.10;;;;;;;;;;5072745;28;20052;-70
2022/10/10 02:29:32;;;;;;;7.10;2.20;;;;;;;;;;5073611;28;20052;-70
2022/10/10 02:31:59;;;;;;;;;;;;;;;;;;5072551;28;20061;-70
2022/10/10 02:34:32;;;;;;;7.20;2.15;;;;;;;;;;5073526;28;19925;-70
2022/10/10 02:37:01;;;;;;;3.58;1.80;;;;;;;;;;5073738;28;20044;-70
2022/10/10 02:39:29;;;;;;;5.18;2.35;;;;;;;;;;5073467;28;20067;-70
2022/10/10 02:41:56;;;;;;;4.63;2.30;;;;;;;;;;5072370;28;20055;-70
2022/10/10 02:44:23;;;;;;;5.22;2.58;;;;;;;;;;5073700;28;20052;-70
2022/10/10 02:46:50;;;;;;;6.57;2.67;;;;;;;;;;5073266;28;20423;-70
2022/10/10 02:49:24;;;;;;;6.90;2.63;;;;;;;;;;5073523;28;20052;-70
2022/10/10 02:51:51;;;;;;;5.30;2.72;;;;;;;;;;5073372;28;20052;-70
2022/10/10 02:54:17;;;;;;;6.47;3.30;;;;;;;;;;5073184;28;20058;-70
2022/10/10 02:56:44;;;;;;;8.70;2.40;;;;;;;;;;5073368;28;20048;-70
2022/10/10 02:59:10;;;;;;;5.05;2.60;;;;;;;;;;5072968;28;20037;-71
2022/10/10 03:01:37;;;;;;;7.63;2.78;;;;;;;;;;5073308;28;20045;-70
2022/10/10 03:04:03;;;;;;;6.18;2.50;;;;;;;;;;5071829;28;20055;-70
2022/10/10 03:06:29;;;;;;;7.43;3.17;;;;;;;;;;5073088;28;20048;-71
2022/10/10 03:08:56;;;;;;;8.18;3.00;;;;;;;;;;5073084;28;20054;-70
2022/10/10 03:11:22;;;;;;;4.28;2.60;;;;;;;;;;5072874;28;20056;-70
2022/10/10 03:13:48;;;;;;;3.88;2.50;;;;;;;;;;5072995;28;20052;-71
2022/10/10 03:16:15;;;;;;;5.78;3.00;;;;;;;;;;5072542;28;20051;-70
2022/10/10 03:18:41;;;;;;;8.60;3.25;;;;;;;;;;5072742;28;20044;-70
2022/10/10 03:21:08;;;;;;;5.70;2.80;;;;;;;;;;5072872;28;20049;-70
2022/10/10 03:23:34;;;;;;;6.35;3.10;;;;;;;;;;5072725;28;20046;-70
2022/10/10 03:26:01;;;;;;;7.43;2.60;;;;;;;;;;5072778;28;20392;-71
2022/10/10 03:28:27;;;;;;;4.40;2.78;;;;;;;;;;5072486;28;20047;-70
2022/10/10 03:30:54;;;;;;;8.63;3.60;;;;;;;;;;5072675;28;20561;-70
2022/10/10 03:33:21;;;;;;;5.95;3.25;;;;;;;;;;5072324;28;20048;-71
2022/10/10 03:35:47;;;;;;;3.92;2.70;;;;;;;;;;5072489;28;20399;-70
2022/10/10 03:38:14;;;;;;;4.85;2.30;;;;;;;;;;5072293;28;20048;-70
2022/10/10 03:40:41;;;;;;;5.50;2.63;;;;;;;;;;5072312;28;20047;-70
2022/10/10 03:43:09;;;;;;;5.68;3.35;;;;;;;;;;5072209;28;20285;-70
2022/10/10 03:45:35;;;;;;;6.68;3.22;;;;;;;;;;5064594;28;20048;-70
2022/10/10 03:48:02;;;;;;;6.22;3.72;;;;;;;;;;5072404;28;20066;-70
2022/10/10 03:50:29;;;;;;;9.67;3.87;;;;;;;;;;5072316;28;20051;-70
2022/10/10 03:52:55;;;;;;;8.00;3.58;;;;;;;;;;5072034;28;20285;-70
2022/10/10 03:55:21;;;;;;;5.22;3.13;;;;;;;;;;5072226;28;20045;-71
2022/10/10 03:57:48;;;;;;;7.18;3.42;;;;;;;;;;5072225;28;20048;-71
2022/10/10 04:00:14;;;;;;;5.25;3.05;;;;;;;;;;5071234;28;20377;-70
2022/10/10 04:02:41;;;;;;;5.40;3.45;;;;;;;;;;5058433;28;20070;-70
2022/10/10 04:05:07;;;;;;;8.65;3.72;;;;;;;;;;5072165;28;20048;-70
2022/10/10 04:07:33;;;;;;;6.47;3.72;;;;;;;;;;5071885;28;20048;-71
2022/10/10 04:10:00;;;;;;;6.30;3.90;;;;;;;;;;5071819;28;20127;-70
2022/10/10 04:12:26;;;;;;;8.80;3.63;;;;;;;;;;5070828;28;20047;-70
2022/10/10 04:14:53;;;;;;;6.18;3.85;;;;;;;;;;5071801;28;20064;-70
2022/10/10 04:17:19;;;;;;;7.28;4.13;;;;;;;;;;5071572;28;20044;-70
2022/10/10 04:19:45;;;;;;;5.45;3.92;;;;;;;;;;5071642;28;20053;-70
2022/10/10 04:22:13;;;;;;;5.82;3.28;;;;;;;;;;5071788;28;20052;-70
2022/10/10 04:24:39;;;;;;;4.18;3.78;;;;;;;;;;5070334;28;20492;-70
2022/10/10 04:27:05;;;;;;;6.63;4.25;;;;;;;;;;5070329;28;20553;-70
2022/10/10 04:29:32;;;;;;;8.55;4.60;;;;;;;;;;5071565;28;20392;-70
2022/10/10 04:31:58;;;;;;;9.30;4.85;;;;;;;;;;5071690;28;20056;-70
2022/10/10 04:34:25;;;;;;;6.60;4.70;;;;;;;;;;5071567;28;20044;-70
2022/10/10 04:36:51;;;;;;;7.43;4.75;;;;;;;;;;5071474;28;20051;-70
2022/10/10 04:39:18;;;;;;;10.32;5.03;;;;;;;;;;5070228;28;20048;-70
2022/10/10 04:41:48;;;;;;;7.57;4.95;;;;;;;;;;5071731;28;20051;-69
2022/10/10 04:44:15;;;;;;;7.88;4.88;;;;;;;;;;5070257;28;20048;-70
2022/10/10 04:46:42;;;;;;;10.05;5.28;;;;;;;;;;5071430;28;20506;-70
2022/10/10 04:49:08;;;;;;;10.55;5.40;;;;;;;;;;5071548;28;20051;-70
2022/10/10 04:51:34;;;;;;;3.42;1.92;;;;;;;;;;5071615;28;20076;-70
2022/10/10 04:54:01;;;;;;;3.65;2.03;;;;;;;;;;5071537;28;20064;-70
2022/10/10 04:56:27;;;;;;;2.95;1.40;;;;;;;;;;5057790;28;20056;-70
2022/10/10 04:58:54;;;;;;;1.50;1.30;;;;;;;;;;5071499;28;20055;-71
2022/10/10 05:01:20;;;;;;;1.80;1.00;;;;;;;;;;5071526;28;20049;-70
2022/10/10 05:03:46;;;;;;;1.75;1.35;;;;;;;;;;5071228;28;20044;-70
2022/10/10 05:06:13;;;;;;;1.38;1.30;;;;;;;;;;5071770;28;20416;-70
2022/10/10 05:08:39;;;;;;;2.30;1.40;;;;;;;;;;5070223;28;20387;-70
2022/10/10 05:11:05;;;;;;;1.85;1.30;;;;;;;;;;5071538;28;20064;-70
2022/10/10 05:13:32;;;;;;;1.40;1.30;;;;;;;;;;5070080;28;20067;-70
2022/10/10 05:15:59;;;;;;;0.95;0.90;;;;;;;;;;5073762;28;20488;-70
2022/10/10 05:18:25;;;;;;;1.83;0.90;;;;;;;;;;5075066;28;20048;-70
2022/10/10 05:20:52;;;;;;;0.50;0.50;;;;;;;;;;5074866;28;20051;-70
2022/10/10 05:23:18;;;;;;;0.38;0.20;;;;;;;;;;5075219;28;20411;-70
2022/10/10 05:25:49;;;;;;;1.98;0.40;;;;;;;;;;5075021;28;20052;-70
2022/10/10 05:28:15;;;;;;;1.48;0.43;;;;;;;;;;5074944;28;20054;-70
2022/10/10 05:30:42;;;;;;;0.82;0.20;;;;;;;;;;5060868;28;20059;-70
2022/10/10 05:33:08;;;;;;;1.13;0.35;;;;;;;;;;5074557;28;20149;-70
2022/10/10 05:35:35;;;;;;;5.28;0.82;;;;;;;;;;5074657;28;20052;-70
2022/10/10 05:38:01;;;;;;;5.30;0.75;;;;;;;;;;5074889;28;20046;-70
2022/10/10 05:40:28;;;;;;;3.60;0.70;;;;;;;;;;5074556;28;20488;-70
2022/10/10 05:42:54;;;;;;;4.72;0.80;;;;;;;;;;5073166;28;20049;-70
2022/10/10 05:45:20;;;;;;;3.90;0.63;;;;;;;;;;5073330;28;20045;-70
2022/10/10 05:47:47;;;;;;;2.35;0.60;;;;;;;;;;5074661;28;20052;-70
2022/10/10 05:50:33;;;;;;;4.88;0.98;;;;;;;;;;5074408;28;20063;-70
2022/10/10 05:53:00;;;;;;;4.57;0.70;;;;;;;;;;5074079;28;20040;-70
2022/10/10 05:55:27;;;;;;;3.67;0.70;;;;;;;;;;5074338;28;20514;-70
2022/10/10 05:57:53;;;;;;;5.03;1.10;;;;;;;;;;5074356;28;20075;-70
2022/10/10 06:00:20;;;;;;;3.65;0.70;;;;;;;;;;5074145;28;20052;-70
2022/10/10 06:02:46;;;;;;;5.18;1.00;;;;;;;;;;5074521;28;20045;-70
2022/10/10 06:05:13;;;;;;;7.18;0.75;;;;;;;;;;5074325;28;20733;-70
2022/10/10 06:07:39;;;;;;;4.85;0.88;;;;;;;;;;5074238;28;20048;-70
2022/10/10 06:10:26;;;;;;;1.65;0.70;;;;;;;;;;5074276;28;20082;-69
2022/10/10 06:12:52;;;;;;;6.93;1.13;;;;;;;;;;5072789;28;20051;-70
2022/10/10 06:15:19;;;;;;;4.43;0.80;;;;;;;;;;5073915;28;20131;-70
2022/10/10 06:17:45;;;;;;;1.90;0.70;;;;;;;;;;5074188;28;20072;-70
2022/10/10 06:20:11;;;;;;;3.25;0.90;;;;;;;;;;5074203;28;20127;-70
2022/10/10 06:22:38;;;;;;;8.45;1.52;;;;;;;;;;5073784;28;20498;-69
2022/10/10 06:25:04;;;;;;;6.10;1.10;;;;;;;;;;5073563;28;20055;-69
2022/10/10 06:27:44;;;;;;;7.68;1.48;;;;;;;;;;5073609;28;20049;-70
2022/10/10 06:30:11;;;;;;;5.63;0.90;;;;;;;;;;5073761;28;20488;-69
2022/10/10 06:32:37;;;;;;;6.90;1.20;;;;;;;;;;5073202;28;20056;-69
2022/10/10 06:35:04;;;;;;;2.72;1.00;;;;;;;;;;5062333;28;20057;-70
2022/10/10 06:37:30;;;;;;;5.60;1.10;;;;;;;;;;5053196;28;20041;-70
2022/10/10 06:39:57;;;;;;;5.90;1.35;;;;;;;;;;5062671;28;20053;-70
2022/10/10 06:42:23;;;;;;;4.38;1.10;;;;;;;;;;5052819;28;20045;-68
2022/10/10 06:44:49;;;;;;;5.60;1.10;;;;;;;;;;5052884;28;20053;-70
2022/10/10 06:47:16;;;;;;;5.22;1.20;;;;;;;;;;5055959;28;20055;-69
2022/10/10 06:49:42;;;;;;;6.30;1.10;;;;;;;;;;5073636;28;20047;-69
2022/10/10 06:52:09;;;;;;;5.55;1.23;;;;;;;;;;5055087;28;20044;-69
2022/10/10 06:54:35;;;;;;;5.38;1.20;;;;;;;;;;5059294;28;20044;-69
2022/10/10 06:57:01;;;;;;;5.18;1.10;;;;;;;;;;5052391;28;20408;-69
2022/10/10 06:59:28;;;;;;;4.05;1.10;;;;;;;;;;5052424;28;20041;-69
2022/10/10 07:01:54;;;;;;;5.90;1.00;;;;;;;;;;5058186;28;20051;-69
2022/10/10 07:04:21;;;;;;;6.40;1.20;;;;;;;;;;5058502;28;20049;-69
2022/10/10 07:06:47;;;;;;;4.15;0.77;;;;;;;;;;5056914;28;20057;-68
2022/10/10 07:09:14;;;;;;;4.57;0.98;;;;;;;;;;5052247;28;20052;-68
2022/10/10 07:11:44;;;;;;;7.68;1.15;;;;;;;;;;5052783;28;20051;-68
2022/10/10 07:14:11;;;;;;;6.05;1.42;;;;;;;;;;5051508;28;20044;-67
2022/10/10 07:16:37;;;;;;;7.13;1.48;;;;;;;;;;5052139;28;20063;-68
2022/10/10 07:19:04;;;;;;;10.38;1.60;;;;;;;;;;5052395;28;20045;-67
2022/10/10 07:21:30;;;;;;;5.95;1.38;;;;;;;;;;5050090;28;20055;-69
2022/10/10 07:23:57;;;;;;;4.85;1.33;;;;;;;;;;5068129;28;20051;-68
2022/10/10 07:26:27;;;;;;;9.70;1.65;;;;;;;;;;5065591;28;20219;-68
2022/10/10 07:28:53;;;;;;;4.45;1.00;;;;;;;;;;5065707;28;20488;-68
2022/10/10 07:31:19;;;;;;;6.35;1.38;;;;;;;;;;5072556;28;20041;-68
2022/10/10 07:33:46;;;;;;;4.45;1.42;;;;;;;;;;5072329;28;20053;-68
2022/10/10 07:36:17;;;;;;;6.50;1.30;;;;;;;;;;5058036;28;20052;-68
2022/10/10 07:38:43;;;;;;;6.95;1.30;;;;;;;;;;5072182;28;20052;-68
2022/10/10 07:41:12;;;;;;;8.95;1.23;;;;;;;;;;5072389;28;20051;-67
2022/10/10 07:43:39;;;;;;;4.10;1.30;;;;;;;;;;5058794;28;20055;-67
2022/10/10 07:46:12;;;;;;;6.20;1.20;;;;;;;;;;5070925;28;20036;-68
2022/10/10 07:48:39;;;;;;;11.75;2.70;;;;;;;;;;5059187;28;20062;-68
2022/10/10 07:51:06;;;;;;;9.00;1.60;;;;;;;;;;5069636;28;20049;-68
2022/10/10 07:53:32;;;;;;;7.00;1.27;;;;;;;;;;5071742;28;20510;-68
2022/10/10 07:55:59;;;;;;;5.38;1.08;;;;;;;;;;5072034;28;20056;-68
2022/10/10 07:58:25;;;;;;;5.90;1.25;;;;;;;;;;5071847;28;20044;-68
2022/10/10 08:01:00;;;;;;;8.65;1.95;;;;;;;;;;5071922;28;20480;-68
2022/10/10 08:03:26;;;;;;;8.35;1.92;;;;;;;;;;5071955;28;20528;-68
2022/10/10 08:05:53;;;;;;;7.65;2.13;;;;;;;;;;5072114;28;20052;-68
2022/10/10 08:08:19;;;;;;;5.40;1.35;;;;;;;;;;5072208;28;20384;-68
2022/10/10 08:10:45;;;;;;;10.07;1.45;;;;;;;;;;5071961;28;20074;-67
2022/10/10 08:13:12;;;;;;;4.82;0.98;;;;;;;;;;5072146;28;20056;-68
2022/10/10 08:15:38;;;;;;;5.18;0.88;;;;;;;;;;5071877;28;20044;-68
2022/10/10 08:18:05;;;;;;;5.20;1.08;;;;;;;;;;5071591;28;20045;-68
2022/10/10 08:20:31;;;;;;;5.30;1.33;;;;;;;;;;5071660;28;20057;-68
2022/10/10 08:22:58;;;;;;;7.43;1.17;;;;;;;;;;5072287;28;20048;-68
2022/10/10 08:25:25;;;;;;;5.93;1.00;;;;;;;;;;5071669;28;20053;-68
2022/10/10 08:27:51;;;;;;;4.53;1.27;;;;;;;;;;5071658;28;20492;-68
2022/10/10 08:30:17;;;;;;;2.45;0.82;;;;;;;;;;5071969;28;20384;-68
2022/10/10 08:32:44;;;;;;;4.53;1.20;;;;;;;;;;5071384;28;20071;-68
2022/10/10 08:35:10;;;;;;;4.43;1.00;;;;;;;;;;5070405;28;20045;-68
2022/10/10 08:37:37;;;;;;;4.67;1.20;;;;;;;;;;5071142;28;20488;-68
2022/10/10 08:40:04;;;;;;;4.17;1.13;;;;;;;;;;5070327;28;20712;-68
2022/10/10 08:42:32;;;;;;;5.45;1.10;;;;;;;;;;5058189;28;20132;-68
2022/10/10 08:45:03;;;;;;;3.92;1.10;;;;;;;;;;5051348;28;20048;-67
2022/10/10 08:47:43;;;;;;;4.45;1.27;;;;;;;;;;5071803;28;20052;-66
2022/10/10 08:50:16;;;;;;;4.78;1.10;;;;;;;;;;5074529;28;20139;-66
2022/10/10 08:52:49;;;;;;;6.22;1.48;;;;;;;;;;5075707;28;20048;-66
2022/10/10 08:55:18;;;;;;;5.63;1.13;;;;;;;;;;5075543;28;20055;-66
2022/10/10 08:57:56;;;;;;;3.17;1.08;;;;;;;;;;5075411;28;20080;-66
2022/10/10 09:00:24;;;;;;;4.97;1.10;;;;;;;;;;5072389;28;20044;-65
2022/10/10 09:02:52;;;;;;;4.53;1.02;;;;;;;;;;5054448;28;20056;-65
2022/10/10 09:05:26;;;;;;;4.32;1.10;;;;;;;;;;5075171;28;20048;-65
2022/10/10 09:08:13;;;;;;;5.00;1.10;;;;;;;;;;5063838;28;20496;-65
2022/10/10 09:10:39;;;;;;;;;;;;;;;;;;5054042;28;20488;-65
2022/10/10 09:13:24;;;;;;;5.18;1.17;;;;;;;;;;5072672;28;20381;-66
2022/10/10 09:15:50;;;;;;;5.38;1.38;;;;;;;;;;5074730;28;20492;-65
2022/10/10 09:18:19;;;;;;;5.97;1.30;;;;;;;;;;5074515;28;20051;-66
2022/10/10 09:20:50;;;;;;;6.43;1.60;;;;;;;;;;5066417;28;20124;-68
2022/10/10 09:23:20;;;;;;;7.57;1.80;;;;;;;;;;5066236;28;20041;-64
2022/10/10 09:25:52;;;;;;;5.20;1.50;;;;;;;;;;5069682;28;20044;-64
2022/10/10 09:28:39;;;;;;;5.38;1.80;;;;;;;;;;5067698;28;20049;-65
2022/10/10 09:31:11;;;;;;;4.93;1.55;;;;;;;;;;5060882;28;20106;-64
2022/10/10 09:33:40;;;;;;;5.53;1.50;;;;;;;;;;5074538;28;20149;-65
2022/10/10 09:36:09;;;;;;;5.80;1.58;;;;;;;;;;5066388;28;20053;-65
2022/10/10 09:38:37;;;;;;;6.63;1.70;;;;;;;;;;5051572;28;20041;-65
2022/10/10 09:41:11;;;;;;;5.32;1.80;;;;;;;;;;5054361;28;20069;-64
2022/10/10 09:43:37;;;;;;;4.97;1.55;;;;;;;;;;5071567;28;20044;-65
2022/10/10 09:46:04;;;;;;;3.33;1.25;;;;;;;;;;5074428;28;20452;-65
2022/10/10 09:48:32;;;;;;;3.05;1.10;;;;;;;;;;5074098;28;20048;-65
2022/10/10 09:50:59;;;;;;;5.35;1.33;;;;;;;;;;5074398;28;20055;-65
2022/10/10 09:53:26;;;;;;;3.92;1.10;;;;;;;;;;5072677;28;20048;-65
2022/10/10 09:55:53;;;;;;;4.97;0.93;;;;;;;;;;5067194;28;20057;-65
2022/10/10 09:58:22;;;;;;;4.10;1.13;;;;;;;;;;5069002;28;20049;-65
2022/10/10 10:00:48;;;;;;;4.78;1.20;;;;;;;;;;5073388;28;20041;-65
2022/10/10 10:03:16;;;;;;;6.00;1.05;;;;;;;;;;5073801;28;20057;-65
2022/10/10 10:05:44;;;;;;;5.65;1.20;;;;;;;;;;5073852;28;20043;-65
2022/10/10 10:08:21;;;;;;;3.45;1.08;;;;;;;;;;5073703;28;20056;-65
2022/10/10 10:10:48;;;;;;;7.15;1.35;;;;;;;;;;5073878;28;20060;-65
2022/10/10 10:13:20;;;;;;;4.38;1.42;;;;;;;;;;5069122;28;20052;-65
2022/10/10 10:15:48;;;;;;;5.10;1.27;;;;;;;;;;5060030;28;20066;-65
2022/10/10 10:18:26;;;;;;;6.65;1.30;;;;;;;;;;5073333;28;20056;-65
2022/10/10 10:21:02;;;;;;;2.55;0.98;;;;;;;;;;5073646;28;20045;-65
2022/10/10 10:23:31;;;;;;;5.55;1.52;;;;;;;;;;5073747;28;20044;-65
2022/10/10 10:26:00;;;;;;;4.32;1.20;;;;;;;;;;5073668;28;20059;-64
2022/10/10 10:28:27;;;;;;;4.40;1.13;;;;;;;;;;5073439;28;20060;-65
2022/10/10 10:30:55;;;;;;;5.32;1.20;;;;;;;;;;5073220;28;20051;-65
2022/10/10 10:33:37;;;;;;;4.75;1.10;;;;;;;;;;5073094;28;20052;-65
2022/10/10 10:36:20;;;;;;;4.97;1.10;;;;;;;;;;5073199;28;20060;-65
2022/10/10 10:38:52;;;;;;;4.18;1.10;;;;;;;;;;5073058;28;20045;-64
2022/10/10 10:41:18;;;;;;;8.18;1.70;;;;;;;;;;5073091;28;20044;-67
2022/10/10 10:43:53;;;;;;;4.82;1.20;;;;;;;;;;5073279;28;20048;-66
2022/10/10 10:46:20;;;;;;;3.17;1.07;;;;;;;;;;5073176;28;20051;-73
2022/10/10 10:48:51;;;;;;;4.35;1.20;;;;;;;;;;5072873;28;20495;-70
2022/10/10 10:51:24;;;;;;;2.97;1.10;;;;;;;;;;5072745;28;20492;-72
2022/10/10 10:53:50;;;;;;;3.53;1.10;;;;;;;;;;5072742;28;20052;-70
2022/10/10 10:56:17;;;;;;;;;;;;;;;;;;5063043;28;20401;-66
2022/10/10 10:58:43;;;;;;;10.90;2.08;;;;;;;;;;5071331;28;19924;-70
2022/10/10 11:01:33;;;;;;;5.38;1.40;;;;;;;;;;5072473;28;20048;-70
2022/10/10 11:04:23;;;;;;;4.55;1.63;;;;;;;;;;5072812;28;20098;-70
2022/10/10 11:07:15;;;;;;;2.80;1.00;;;;;;;;;;5072408;28;20098;-71
2022/10/10 11:10:00;;;;;;;3.58;1.10;;;;;;;;;;5072427;28;20061;-71
2022/10/10 11:12:53;;;;;;;5.00;1.20;;;;;;;;;;5071636;28;20127;-69
2022/10/10 11:15:21;;;;;;;7.07;1.30;;;;;;;;;;5070485;28;20048;-71
2022/10/10 11:17:48;;;;;;;4.28;1.10;;;;;;;;;;5072450;28;20060;-71
2022/10/10 11:20:14;;;;;;;5.97;1.23;;;;;;;;;;5057130;28;20516;-71
2022/10/10 11:22:45;;;;;;;3.20;1.05;;;;;;;;;;5070016;28;20480;-73
2022/10/10 11:25:22;;;;;;;3.28;0.90;;;;;;;;;;5072456;28;20497;-71
2022/10/10 11:27:55;;;;;;;3.70;1.10;;;;;;;;;;5072324;28;20049;-72
2022/10/10 11:30:26;;;;;;;3.65;1.33;;;;;;;;;;5072299;28;20051;-73
2022/10/10 11:33:03;;;;;;;4.55;1.17;;;;;;;;;;5071850;28;20396;-73
2022/10/10 11:35:29;;;;;;;5.97;1.08;;;;;;;;;;5072237;28;20087;-73
2022/10/10 11:37:56;;;;;;;;;;;;;;;;;;5072122;28;20062;-73
2022/10/10 11:40:35;;;;;;;5.55;0.75;;;;;;;;;;5072101;28;19920;-73
2022/10/10 11:43:04;;;;;;;3.72;1.33;;;;;;;;;;5071878;28;20427;-73
2022/10/10 11:45:36;;;;;;;5.68;1.00;;;;;;;;;;5057190;28;20044;-73
2022/10/10 11:48:14;;;;;;;4.32;0.90;;;;;;;;;;5072002;28;20055;-73
2022/10/10 11:50:41;;;;;;;4.00;1.20;;;;;;;;;;5071896;28;20063;-72
2022/10/10 11:53:27;;;;;;;3.20;1.00;;;;;;;;;;5071522;28;20045;-72
2022/10/10 11:56:03;;;;;;;1.58;0.52;;;;;;;;;;5064637;28;20059;-73
2022/10/10 11:58:39;;;;;;;2.55;0.90;;;;;;;;;;5068443;28;20080;-73
2022/10/10 12:01:19;;;;;;;4.13;0.93;;;;;;;;;;5065408;28;20063;-74
2022/10/10 12:03:45;;;;;;;3.85;0.98;;;;;;;;;;5064165;28;20057;-73
2022/10/10 12:06:19;;;;;;;3.97;1.20;;;;;;;;;;5071844;28;20045;-73
2022/10/10 12:08:58;;;;;;;3.78;0.95;;;;;;;;;;5071700;28;20095;-73
2022/10/10 12:11:30;;;;;;;4.18;0.82;;;;;;;;;;5066702;28;20056;-72
2022/10/10 12:13:59;;;;;;;2.40;0.70;;;;;;;;;;5049181;28;20415;-72
2022/10/10 12:16:27;;;;;;;3.13;0.80;;;;;;;;;;5066278;28;20056;-72
2022/10/10 12:19:00;;;;;;;2.85;0.80;;;;;;;;;;5071257;28;20131;-72
2022/10/10 12:21:28;;;;;;;4.18;0.70;;;;;;;;;;5071297;28;20048;-72
2022/10/10 12:24:11;;;;;;;2.78;0.70;;;;;;;;;;5069902;28;20511;-71
2022/10/10 12:26:58;;;;;;;3.05;0.80;;;;;;;;;;5060192;28;20044;-71
2022/10/10 12:29:42;;;;;;;2.17;0.98;;;;;;;;;;5049985;28;20040;-71
2022/10/10 12:32:18;;;;;;;2.33;0.90;;;;;;;;;;5070924;28;20114;-71
2022/10/10 12:34:48;;;;;;;2.70;0.70;;;;;;;;;;5071376;28;20057;-71
2022/10/10 12:37:34;;;;;;;4.28;0.80;;;;;;;;;;5071387;28;20048;-71
2022/10/10 12:40:06;;;;;;;1.75;0.68;;;;;;;;;;5071047;28;20412;-71
2022/10/10 12:42:36;;;;;;;3.13;0.77;;;;;;;;;;5071238;28;20048;-72
2022/10/10 12:45:23;;;;;;;3.10;0.80;;;;;;;;;;5071241;28;20048;-71
2022/10/10 12:47:49;;;;;;;3.50;0.93;;;;;;;;;;5065555;28;20052;-71
2022/10/10 12:50:34;;;;;;;3.47;0.77;;;;;;;;;;5061494;28;20048;-72
2022/10/10 12:53:01;;;;;;;2.88;0.90;;;;;;;;;;5070774;28;20789;-71
2022/10/10 12:55:29;;;;;;;3.20;1.02;;;;;;;;;;5067732;28;20041;-72
2022/10/10 12:57:57;;;;;;;3.30;0.90;;;;;;;;;;5062931;28;20052;-71
2022/10/10 13:00:25;;;;;;;4.53;1.00;;;;;;;;;;5060694;28;20445;-72
2022/10/10 13:02:54;;;;;;;3.13;0.88;;;;;;;;;;5071097;28;20051;-72
2022/10/10 13:05:46;;;;;;;2.35;0.73;;;;;;;;;;5056403;28;20041;-72
2022/10/10 13:08:14;;;;;;;3.08;0.75;;;;;;;;;;5048372;28;20504;-71
2022/10/10 13:10:41;;;;;;;2.00;0.57;;;;;;;;;;5069612;28;20078;-72
2022/10/10 13:13:18;;;;;;;3.00;0.85;;;;;;;;;;5068738;28;20106;-72
2022/10/10 13:15:58;;;;;;;1.92;0.80;;;;;;;;;;5053025;28;20059;-72
2022/10/10 13:18:35;;;;;;;2.33;0.65;;;;;;;;;;5067685;28;20054;-71
2022/10/10 13:21:02;;;;;;;2.53;0.90;;;;;;;;;;5070696;28;20492;-71
2022/10/10 13:23:29;;;;;;;2.33;0.80;;;;;;;;;;5070700;28;20470;-71
2022/10/10 13:25:56;;;;;;;2.00;0.80;;;;;;;;;;5070929;28;20413;-71
2022/10/10 13:28:22;;;;;;;3.92;0.80;;;;;;;;;;5070760;28;20059;-71
2022/10/10 13:30:49;;;;;;;3.33;0.88;;;;;;;;;;5070809;28;20362;-71
2022/10/10 13:33:17;;;;;;;2.72;1.13;;;;;;;;;;5070509;28;20415;-71
2022/10/10 13:35:44;;;;;;;3.05;1.27;;;;;;;;;;5071183;28;20052;-71
2022/10/10 13:38:12;;;;;;;5.72;1.70;;;;;;;;;;5074213;28;20505;-72
2022/10/10 13:40:42;;;;;;;3.28;1.10;;;;;;;;;;5074132;28;20048;-72
2022/10/10 13:43:18;;;;;;;3.53;1.48;;;;;;;;;;5074329;28;20044;-73
2022/10/10 13:45:45;;;;;;;2.30;1.00;;;;;;;;;;5074382;28;20045;-72
2022/10/10 13:48:35;;;;;;;4.20;1.08;;;;;;;;;;5058648;28;20045;-71
2022/10/10 13:51:24;;;;;;;3.25;0.95;;;;;;;;;;5045909;28;20056;-71
2022/10/10 13:53:52;;;;;;;4.15;1.02;;;;;;;;;;5059370;28;20507;-72
2022/10/10 13:56:28;;;;;;;3.60;1.20;;;;;;;;;;5063386;28;20123;-72
2022/10/10 13:59:00;;;;;;;3.55;0.80;;;;;;;;;;5065375;28;20063;-72
2022/10/10 14:01:40;;;;;;;2.35;0.93;;;;;;;;;;5071687;28;20048;-72
2022/10/10 14:04:10;;;;;;;3.10;1.00;;;;;;;;;;5062536;28;20082;-71
2022/10/10 14:06:36;;;;;;;2.20;0.70;;;;;;;;;;5073135;28;20052;-70
2022/10/10 14:09:06;;;;;;;6.00;1.55;;;;;;;;;;5059980;28;20575;-70
2022/10/10 14:11:33;;;;;;;4.20;1.20;;;;;;;;;;5058968;28;20411;-70
2022/10/10 14:14:03;;;;;;;1.98;0.70;;;;;;;;;;5047401;28;20056;-69
2022/10/10 14:16:30;;;;;;;5.03;1.00;;;;;;;;;;5071763;28;20051;-69
2022/10/10 14:18:56;;;;;;;;;;;;;;;;;;5073432;28;20055;-69
2022/10/10 14:21:22;;;;;;;3.15;0.98;;;;;;;;;;5072596;28;19920;-67
2022/10/10 14:23:49;;;;;;;2.60;0.75;;;;;;;;;;5073434;28;20052;-69
2022/10/10 14:26:15;;;;;;;;;;;;;;;;;;5074227;28;20052;-66
2022/10/10 14:28:41;;;;;;;1.95;0.70;;;;;;;;;;5073684;28;19924;-70
2022/10/10 14:31:08;;;;;;;2.63;1.00;;;;;;;;;;5073979;28;20079;-69
2022/10/10 14:33:34;;;;;;;;;;;;;;;;;;5072556;28;20056;-68
2022/10/10 14:36:01;;;;;;;2.97;0.70;;;;;;;;;;5073963;28;19942;-67
2022/10/10 14:38:27;;;;;;;;;;;;;;;;;;5073906;28;20050;-69
2022/10/10 14:40:54;;;;;;;3.85;0.98;;;;;;;;;;5073534;28;19928;-67
2022/10/10 14:43:21;;;;;;;6.55;1.10;;;;;;;;;;5073403;28;20060;-66
2022/10/10 14:45:48;;;;;;;3.00;1.02;;;;;;;;;;5073762;28;20467;-66
2022/10/10 14:48:15;;;;;;;2.42;0.65;;;;;;;;;;5073169;28;20055;-67
2022/10/10 14:50:43;;;;;;;2.85;0.80;;;;;;;;;;5073399;28;20489;-67
2022/10/10 14:53:10;;;;;;;3.97;1.10;;;;;;;;;;5073507;28;20040;-67
2022/10/10 14:55:37;;;;;;;4.53;0.70;;;;;;;;;;5073462;28;20063;-67
2022/10/10 14:58:03;;;;;;;3.30;0.90;;;;;;;;;;5073475;28;20045;-69
2022/10/10 15:00:29;;;;;;;4.35;1.02;;;;;;;;;;5073289;28;20048;-67